Time;durP1;ratioP1;P1;durP2;ratioP2;P2;SDS_P1;SDS_P2;PMS_P1;PMS_P2;Temp;Humidity;BMP_temperature;BMP_pressure;BME280_temperature;BME280_humidity;BME280_pressure;Samples;Min_cycle;Max_cycle;Signal;HPM_P1;HPM_P2
2022/06/25 00:01:24;;;;;;;9.13;6.62;;;;;;;19.93;57.25;100478.67;1670196;84;25331;-78
2022/06/25 00:03:52;;;;;;;7.67;6.25;;;;;;;19.91;57.35;100474.55;1690948;83;27456;-77
2022/06/25 00:06:21;;;;;;;8.58;7.25;;;;;;;19.86;57.28;100478.05;1684862;83;26619;-78
2022/06/25 00:08:48;;;;;;;7.72;6.10;;;;;;;19.82;57.42;100482.88;1660713;83;26484;-78
2022/06/25 00:14:11;;;;;;;7.08;5.78;;;;;;;19.78;57.65;100487.97;1648843;86;26013;-78
2022/06/25 00:16:37;;;;;;;6.55;5.67;;;;;;;19.74;57.75;100481.92;1642042;86;27461;-78
2022/06/25 00:19:05;;;;;;;10.38;6.45;;;;;;;19.70;58.00;100477.53;1643998;84;25842;-78
2022/06/25 00:21:31;;;;;;;14.47;6.37;;;;;;;19.67;58.05;100478.57;1638488;86;25831;-77
2022/06/25 00:23:57;;;;;;;8.50;6.15;;;;;;;19.62;58.16;100477.95;1637950;84;26125;-78
2022/06/25 00:26:25;;;;;;;9.50;6.00;;;;;;;19.62;58.19;100482.56;1652508;84;26417;-78
2022/06/25 00:28:51;;;;;;;9.15;6.30;;;;;;;19.60;58.30;100476.02;1639855;86;27440;-77
2022/06/25 00:31:17;;;;;;;9.85;6.33;;;;;;;19.60;58.42;100480.63;1659798;84;25807;-77
2022/06/25 00:33:44;;;;;;;7.00;5.97;;;;;;;19.58;58.45;100475.45;1660598;84;25806;-78
2022/06/25 00:36:10;;;;;;;9.20;6.08;;;;;;;19.53;58.46;100474.53;1648489;84;26898;-78
2022/06/25 00:38:36;;;;;;;6.22;5.62;;;;;;;19.48;58.59;100474.47;1642121;86;26072;-78
2022/06/25 00:41:03;;;;;;;7.10;5.95;;;;;;;19.43;58.66;100472.50;1655956;84;27473;-78
2022/06/25 00:43:31;;;;;;;7.40;5.55;;;;;;;19.40;58.77;100474.86;1645046;84;26203;-78
2022/06/25 00:45:58;;;;;;;9.15;6.03;;;;;;;19.36;58.90;100474.55;1632666;84;25592;-77
2022/06/25 00:48:24;;;;;;;10.30;5.75;;;;;;;19.34;59.03;100473.97;1658112;86;26868;-78
2022/06/25 00:50:55;;;;;;;6.55;5.95;;;;;;;19.31;59.12;100476.34;1651158;86;26468;-78
2022/06/25 00:53:22;;;;;;;8.60;5.25;;;;;;;19.29;59.20;100473.05;1654452;84;27461;-78
2022/06/25 00:55:50;;;;;;;7.50;5.55;;;;;;;19.23;59.24;100468.88;1654112;84;25843;-78
2022/06/25 00:58:19;;;;;;;7.95;5.40;;;;;;;19.18;59.40;100472.05;1648944;84;25795;-78
2022/06/25 01:00:46;;;;;;;8.15;5.60;;;;;;;19.12;59.54;100472.48;1639989;85;26466;-77
2022/06/25 01:03:15;;;;;;;7.85;5.60;;;;;;;19.07;59.55;100474.30;1647565;84;25847;-77
2022/06/25 01:05:41;;;;;;;6.90;5.85;;;;;;;19.04;59.64;100474.78;1648944;84;27464;-78
2022/06/25 01:08:08;;;;;;;6.40;5.42;;;;;;;18.97;59.67;100472.22;1647566;86;25795;-77
2022/06/25 01:10:34;;;;;;;6.85;5.72;;;;;;;18.88;59.84;100472.88;1640265;84;25804;-78
2022/06/25 01:13:01;;;;;;;5.75;5.03;;;;;;;18.77;59.83;100468.32;1649504;86;26479;-78
2022/06/25 01:15:27;;;;;;;6.45;5.85;;;;;;;18.67;60.06;100466.22;1637995;84;26416;-78
2022/06/25 01:17:54;;;;;;;9.25;7.30;;;;;;;18.60;60.20;100468.28;1638651;86;28273;-79
2022/06/25 01:20:26;;;;;;;11.80;8.33;;;;;;;18.53;60.60;100459.45;1635713;86;26155;-77
2022/06/25 01:22:54;;;;;;;6.80;6.10;;;;;;;18.48;61.05;100458.55;1661138;84;26553;-77
2022/06/25 01:25:21;;;;;;;9.50;5.97;;;;;;;18.40;61.28;100461.06;1649945;84;26975;-78
2022/06/25 01:27:47;;;;;;;7.92;6.22;;;;;;;18.31;61.45;100464.68;1653626;86;25785;-78
2022/06/25 01:30:15;;;;;;;8.23;6.05;;;;;;;18.23;61.65;100452.86;1637285;84;27470;-78
2022/06/25 01:32:41;;;;;;;10.03;6.37;;;;;;;18.18;61.91;100464.11;1645377;86;25916;-77
2022/06/25 01:35:09;;;;;;;7.85;6.37;;;;;;;18.09;62.00;100460.95;1668498;83;25908;-77
2022/06/25 01:37:37;;;;;;;6.78;6.08;;;;;;;18.03;62.37;100454.30;1654768;85;26608;-78
2022/06/25 01:40:04;;;;;;;9.63;6.20;;;;;;;17.96;62.51;100460.41;1666949;83;25845;-78
2022/06/25 01:45:15;;;;;;;7.55;6.78;;;;;;;17.77;63.02;100465.12;1659235;83;25873;-77
2022/06/25 01:47:42;;;;;;;8.45;7.37;;;;;;;17.67;63.38;100464.90;1683305;84;25824;-77
2022/06/25 01:50:10;;;;;;;9.28;6.78;;;;;;;17.56;63.67;100463.84;1671584;83;26084;-77
2022/06/25 01:52:37;;;;;;;10.05;7.40;;;;;;;17.50;63.78;100466.14;1664492;84;25790;-78
2022/06/25 01:55:05;;;;;;;9.23;7.50;;;;;;;17.47;63.94;100461.15;1666773;85;27719;-78
2022/06/25 01:57:33;;;;;;;10.55;7.75;;;;;;;17.40;64.03;100466.40;1672546;84;25868;-77
2022/06/25 01:59:59;;;;;;;10.65;8.05;;;;;;;17.32;64.36;100467.55;1683322;84;25917;-78
2022/06/25 02:02:26;;;;;;;10.38;7.05;;;;;;;17.30;64.58;100473.73;1655471;85;26068;-78
2022/06/25 02:04:53;;;;;;;11.08;8.40;;;;;;;17.26;64.66;100477.97;1666368;83;25333;-77
2022/06/25 02:07:21;;;;;;;12.30;8.80;;;;;;;17.19;64.73;100478.63;1670695;85;27485;-79
2022/06/25 02:09:47;;;;;;;9.93;8.80;;;;;;;17.15;64.83;100473.90;1674344;85;25326;-76
2022/06/25 02:12:13;;;;;;;14.10;8.63;;;;;;;17.10;64.92;100479.17;1657937;83;25341;-77
2022/06/25 02:14:40;;;;;;;9.23;7.92;;;;;;;17.08;65.27;100476.71;1675207;83;26079;-77
2022/06/25 02:17:07;;;;;;;10.58;8.80;;;;;;;17.06;65.34;100475.28;1678652;83;25752;-79
2022/06/25 02:19:33;;;;;;;10.13;8.65;;;;;;;17.04;65.46;100482.30;1686074;83;27478;-77
2022/06/25 02:21:59;;;;;;;11.90;9.18;;;;;;;17.05;65.70;100479.03;1660184;83;25960;-78
2022/06/25 02:24:26;;;;;;;8.73;7.83;;;;;;;17.04;65.77;100478.75;1678216;83;25853;-77
2022/06/25 02:26:52;;;;;;;10.40;7.97;;;;;;;17.03;65.85;100482.50;1667737;83;26305;-78
2022/06/25 02:29:18;;;;;;;11.38;7.92;;;;;;;17.02;66.05;100479.52;1670769;83;25996;-77
2022/06/25 02:31:44;;;;;;;11.43;7.33;;;;;;;17.06;66.25;100480.70;1672347;83;28810;-80
2022/06/25 02:34:11;;;;;;;9.53;7.22;;;;;;;17.07;66.42;100479.11;1648834;85;25839;-78
2022/06/25 02:36:37;;;;;;;8.25;7.08;;;;;;;17.10;66.30;100482.71;1664578;84;25822;-77
2022/06/25 02:39:05;;;;;;;9.08;7.05;;;;;;;17.11;66.63;100484.34;1640233;86;25766;-78
2022/06/25 02:41:31;;;;;;;7.67;6.87;;;;;;;17.15;66.68;100484.73;1674413;84;26521;-78
2022/06/25 02:43:58;;;;;;;8.08;6.65;;;;;;;17.17;66.81;100487.47;1637020;85;27463;-78
2022/06/25 02:46:32;;;;;;;11.18;7.53;;;;;;;17.20;66.83;100490.25;1643838;86;26478;-78
2022/06/25 02:49:01;;;;;;;8.45;6.30;;;;;;;17.24;67.08;100487.37;1672255;84;25856;-77
2022/06/25 02:51:28;;;;;;;10.05;6.65;;;;;;;17.29;67.24;100488.34;1646544;86;26083;-77
2022/06/25 02:53:58;;;;;;;10.20;6.95;;;;;;;17.35;67.19;100479.28;1680956;85;25907;-78
2022/06/25 02:59:11;;;;;;;8.05;7.25;;;;;;;17.45;67.22;100481.42;1680711;84;25856;-77
2022/06/25 03:01:39;;;;;;;6.72;6.15;;;;;;;17.49;67.26;100473.92;1675859;84;25893;-78
2022/06/25 03:04:05;;;;;;;11.40;6.67;;;;;;;17.50;67.16;100478.33;1663882;84;26133;-78
2022/06/25 03:06:32;;;;;;;7.45;6.40;;;;;;;17.52;67.12;100479.44;1642850;85;26063;-78
2022/06/25 03:08:59;;;;;;;10.48;6.53;;;;;;;17.58;67.10;100481.20;1663449;85;27540;-79
2022/06/25 03:11:25;;;;;;;7.62;6.50;;;;;;;17.60;67.08;100479.08;1639071;84;25941;-78
2022/06/25 03:13:52;;;;;;;7.60;5.92;;;;;;;17.63;67.01;100473.20;1649471;84;26156;-77
2022/06/25 03:16:18;;;;;;;8.98;6.15;;;;;;;17.63;66.99;100470.50;1649528;86;26474;-77
2022/06/25 03:18:46;;;;;;;9.53;6.37;;;;;;;17.65;67.09;100471.08;1661026;86;25829;-78
2022/06/25 03:21:25;;;;;;;8.13;6.28;;;;;;;17.66;67.00;100472.75;1654513;86;27462;-78
2022/06/25 03:23:53;;;;;;;7.08;6.03;;;;;;;17.68;67.14;100478.75;1640837;84;25982;-77
2022/06/25 03:26:20;;;;;;;9.60;7.12;;;;;;;17.67;67.22;100479.80;1657124;84;25966;-78
2022/06/25 03:28:48;;;;;;;9.53;6.12;;;;;;;17.71;67.22;100475.03;1637367;84;26167;-78
2022/06/25 03:31:15;;;;;;;6.75;5.67;;;;;;;17.78;67.27;100482.20;1647199;84;26592;-77
2022/06/25 03:33:42;;;;;;;7.17;6.47;;;;;;;17.85;67.27;100484.27;1636053;86;27479;-78
2022/06/25 03:36:23;;;;;;;10.23;6.17;;;;;;;17.88;67.14;100491.39;1659413;86;25875;-78
2022/06/25 03:38:51;;;;;;;7.67;6.28;;;;;;;17.95;67.17;100488.03;1639516;84;26087;-77
2022/06/25 03:41:37;;;;;;;10.18;6.90;;;;;;;17.98;67.29;100489.45;1644546;84;26502;-78
2022/06/25 03:44:14;;;;;;;7.72;6.45;;;;;;;18.02;67.32;100491.45;1643681;84;26026;-78
2022/06/25 03:46:40;;;;;;;10.03;6.10;;;;;;;18.10;67.39;100502.45;1660954;86;27477;-77
2022/06/25 03:49:07;;;;;;;10.72;6.35;;;;;;;18.14;67.35;100496.84;1647812;86;25817;-78
2022/06/25 03:51:45;;;;;;;7.12;5.85;;;;;;;18.22;67.35;100495.94;1631714;84;25769;-79
2022/06/25 03:54:11;;;;;;;8.85;6.65;;;;;;;18.30;67.50;100505.61;1634788;84;26094;-78
2022/06/25 03:56:38;;;;;;;9.83;6.05;;;;;;;18.34;67.54;100494.05;1653041;86;25910;-78
2022/06/25 03:59:06;;;;;;;7.42;5.62;;;;;;;18.39;67.50;100496.04;1645426;86;28289;-78
2022/06/25 04:01:32;;;;;;;8.15;5.92;;;;;;;18.46;67.53;100500.80;1639932;86;25312;-77
2022/06/25 04:04:00;;;;;;;10.68;6.10;;;;;;;18.51;67.30;100502.80;1660606;84;26046;-78
2022/06/25 04:06:26;;;;;;;7.00;6.30;;;;;;;18.60;67.50;100503.55;1660357;84;26157;-78
2022/06/25 04:09:01;;;;;;;8.78;6.47;;;;;;;18.70;67.19;100505.09;1667428;83;25846;-78
2022/06/25 04:11:27;;;;;;;8.48;6.33;;;;;;;18.82;67.05;100509.13;1642305;85;27477;-77
2022/06/25 04:13:55;;;;;;;10.28;6.15;;;;;;;18.92;66.95;100505.25;1644806;85;25916;-77
2022/06/25 04:16:23;;;;;;;8.95;5.95;;;;;;;19.01;66.57;100510.02;1630793;84;25321;-78
2022/06/25 04:18:49;;;;;;;7.45;5.75;;;;;;;19.13;66.50;100515.40;1655895;85;26617;-78
2022/06/25 04:21:18;;;;;;;11.00;6.00;;;;;;;19.21;66.11;100517.19;1658755;86;25840;-77
2022/06/25 04:23:45;;;;;;;5.60;5.10;;;;;;;19.31;65.54;100519.23;1659620;84;27629;-79
2022/06/25 04:26:13;;;;;;;8.55;5.45;;;;;;;19.41;65.68;100518.63;1660738;85;25764;-78
2022/06/25 04:31:38;;;;;;;10.43;5.58;;;;;;;19.56;65.46;100527.03;1659020;85;26274;-78
2022/06/25 04:34:06;;;;;;;8.23;5.90;;;;;;;19.68;65.39;100525.05;1677215;83;25903;-78
2022/06/25 04:36:32;;;;;;;6.83;5.92;;;;;;;19.76;65.02;100521.38;1670812;84;28309;-77
2022/06/25 04:39:00;;;;;;;11.03;6.85;;;;;;;19.82;64.98;100527.17;1642479;84;25932;-78
2022/06/25 04:41:27;;;;;;;12.85;6.60;;;;;;;19.87;64.67;100520.98;1660139;85;25812;-77
2022/06/25 04:43:55;;;;;;;8.75;5.78;;;;;;;19.96;65.20;100526.30;1668463;84;26128;-77
2022/06/25 04:46:23;;;;;;;7.65;6.10;;;;;;;20.07;64.97;100525.37;1673232;85;25831;-77
2022/06/25 04:48:51;;;;;;;9.75;5.37;;;;;;;20.16;65.00;100530.68;1673258;85;28303;-79
2022/06/25 04:51:28;;;;;;;11.65;6.72;;;;;;;20.25;65.09;100531.09;1669817;85;25866;-78
2022/06/25 04:53:56;;;;;;;7.97;6.90;;;;;;;20.36;65.15;100537.77;1670801;84;26716;-78
2022/06/25 04:56:33;;;;;;;11.70;6.72;;;;;;;20.45;65.08;100532.18;1631709;85;26103;-78
2022/06/25 04:59:00;;;;;;;9.23;6.10;;;;;;;20.51;64.22;100533.88;1681417;84;25809;-77
2022/06/25 05:01:45;;;;;;;12.23;6.47;;;;;;;20.57;64.31;100534.79;1675118;85;27469;-79
2022/06/25 05:04:12;;;;;;;9.23;6.65;;;;;;;20.61;63.54;100535.39;1656107;84;25945;-77
2022/06/25 05:06:39;;;;;;;12.18;6.25;;;;;;;20.69;63.30;100532.22;1656420;85;25737;-77
2022/06/25 05:09:05;;;;;;;10.03;6.62;;;;;;;20.78;63.54;100539.39;1659942;85;26964;-77
2022/06/25 05:11:32;;;;;;;10.78;6.45;;;;;;;20.85;62.97;100534.55;1660236;85;25810;-77
2022/06/25 05:13:58;;;;;;;7.30;6.50;;;;;;;20.95;63.36;100537.94;1680222;83;27577;-78
2022/06/25 05:16:24;;;;;;;7.92;6.10;;;;;;;21.04;63.70;100534.52;1654138;85;25868;-81
2022/06/25 05:18:52;;;;;;;10.90;5.90;;;;;;;21.13;63.13;100537.06;1660393;85;25772;-77
2022/06/25 05:21:18;;;;;;;6.33;5.62;;;;;;;21.23;62.77;100536.36;1660192;85;26127;-77
2022/06/25 05:23:45;;;;;;;9.78;5.60;;;;;;;21.30;62.70;100534.22;1659787;84;25907;-78
2022/06/25 05:26:12;;;;;;;10.48;7.00;;;;;;;21.39;62.71;100538.96;1660378;85;27501;-78
2022/06/25 05:28:39;;;;;;;7.53;5.15;;;;;;;21.50;62.16;100549.41;1660572;85;26343;-79
2022/06/25 05:31:07;;;;;;;8.95;5.30;;;;;;;21.59;61.85;100541.58;1661219;85;25892;-78
2022/06/25 05:33:33;;;;;;;9.43;5.05;;;;;;;21.69;61.66;100544.38;1660307;84;27057;-78
2022/06/25 05:35:59;;;;;;;6.95;4.70;;;;;;;21.79;61.44;100549.93;1648666;84;25776;-80
2022/06/25 05:38:26;;;;;;;5.28;4.75;;;;;;;21.91;61.84;100545.13;1667348;84;27458;-78
2022/06/25 05:40:52;;;;;;;8.25;4.95;;;;;;;21.99;61.12;100542.73;1651923;85;25938;-78
2022/06/25 05:43:18;;;;;;;7.00;5.47;;;;;;;22.05;59.60;100544.41;1644790;85;25765;-78
2022/06/25 05:45:45;;;;;;;10.48;4.40;;;;;;;22.13;60.09;100539.81;1637904;86;26060;-78
2022/06/25 05:48:11;;;;;;;4.80;4.22;;;;;;;22.22;59.68;100545.59;1657916;85;26085;-79
2022/06/25 05:50:38;;;;;;;7.40;4.95;;;;;;;22.31;59.52;100540.45;1658483;85;28822;-78
2022/06/25 05:53:04;;;;;;;6.90;4.75;;;;;;;22.43;59.52;100547.91;1647015;85;26271;-78
2022/06/25 05:55:31;;;;;;;6.28;4.55;;;;;;;22.51;58.24;100542.76;1646671;85;25813;-79
2022/06/25 05:57:58;;;;;;;7.10;4.85;;;;;;;22.57;58.00;100536.23;1659343;85;26057;-78
2022/06/25 06:00:26;;;;;;;5.50;3.98;;;;;;;22.65;58.38;100539.83;1658539;85;26359;-82
2022/06/25 06:02:52;;;;;;;5.87;4.50;;;;;;;22.73;58.04;100536.58;1646947;85;27554;-78
2022/06/25 06:05:19;;;;;;;4.95;4.45;;;;;;;22.83;58.06;100543.46;1661678;85;25728;-81
2022/06/25 06:07:45;;;;;;;6.78;4.62;;;;;;;22.92;58.09;100539.09;1661559;85;25760;-78
2022/06/25 06:10:12;;;;;;;6.40;4.75;;;;;;;23.02;58.12;100541.05;1651252;85;26653;-78
2022/06/25 06:12:38;;;;;;;6.05;4.25;;;;;;;23.11;57.29;100546.27;1668353;85;25838;-78
2022/06/25 06:15:05;;;;;;;6.50;4.00;;;;;;;23.20;57.84;100545.19;1658375;85;27805;-78
2022/06/25 06:17:32;;;;;;;8.05;4.62;;;;;;;23.29;57.68;100543.56;1653516;85;25918;-79
2022/06/25 06:19:58;;;;;;;5.78;4.33;;;;;;;23.40;58.25;100541.13;1667094;85;25764;-78
2022/06/25 06:22:24;;;;;;;5.15;4.25;;;;;;;23.52;57.65;100545.80;1667348;84;26664;-77
2022/06/25 06:24:50;;;;;;;7.10;4.35;;;;;;;23.59;56.87;100547.16;1650732;84;25879;-77
2022/06/25 06:27:19;;;;;;;7.00;4.75;;;;;;;23.66;56.69;100542.24;1657075;85;27466;-77
2022/06/25 06:29:45;;;;;;;7.78;4.42;;;;;;;23.76;57.36;100545.50;1662061;84;25958;-78
2022/06/25 06:32:12;;;;;;;5.53;3.98;;;;;;;23.84;56.68;100549.08;1645787;84;25818;-78
2022/06/25 06:34:38;;;;;;;9.58;4.08;;;;;;;23.92;56.07;100546.31;1640753;86;26958;-78
2022/06/25 06:37:05;;;;;;;4.75;3.92;;;;;;;24.01;55.37;100546.04;1660133;86;25313;-79
2022/06/25 06:39:31;;;;;;;5.78;3.87;;;;;;;24.09;55.92;100544.13;1659018;86;27453;-77
2022/06/25 06:41:57;;;;;;;7.15;4.22;;;;;;;24.18;56.21;100549.32;1663188;85;26571;-78
2022/06/25 06:44:24;;;;;;;5.03;3.98;;;;;;;24.27;56.11;100547.09;1673172;84;25873;-78
2022/06/25 06:46:51;;;;;;;8.50;4.00;;;;;;;24.38;56.42;100547.34;1681059;85;26080;-78
2022/06/25 06:49:17;;;;;;;3.87;3.47;;;;;;;24.50;55.60;100560.19;1649915;85;26502;-78
2022/06/25 06:51:43;;;;;;;7.00;3.83;;;;;;;24.57;55.05;100549.48;1669036;85;28301;-78
2022/06/25 06:54:09;;;;;;;6.55;3.33;;;;;;;24.61;54.31;100545.08;1661923;84;25826;-77
2022/06/25 06:56:36;;;;;;;6.85;3.27;;;;;;;24.66;53.47;100545.06;1669904;85;25764;-79
2022/06/25 06:59:03;;;;;;;5.58;3.47;;;;;;;24.71;54.61;100547.22;1662040;85;26080;-78
2022/06/25 07:01:29;;;;;;;7.15;4.05;;;;;;;24.80;54.33;100547.48;1659211;85;25987;-79
2022/06/25 07:03:56;;;;;;;6.80;3.67;;;;;;;24.89;54.06;100542.48;1667581;83;28315;-78
2022/06/25 07:06:22;;;;;;;4.60;3.25;;;;;;;24.96;53.40;100538.07;1656041;85;25527;-77
2022/06/25 07:08:49;;;;;;;4.97;3.30;;;;;;;25.02;53.99;100537.76;1680286;84;25843;-78
2022/06/25 07:11:30;;;;;;;6.45;3.37;;;;;;;25.13;54.09;100539.88;1669160;85;26871;-78
2022/06/25 07:14:03;;;;;;;5.15;3.30;;;;;;;25.21;53.06;100548.33;1689070;83;25787;-78
2022/06/25 07:16:31;;;;;;;5.97;3.47;;;;;;;25.34;53.60;100546.90;1678174;83;28374;-79
2022/06/25 07:18:59;;;;;;;5.08;3.52;;;;;;;25.46;52.72;100541.89;1692158;83;25928;-78
2022/06/25 07:21:27;;;;;;;5.17;3.60;;;;;;;25.53;51.95;100543.77;1686699;83;25805;-78
2022/06/25 07:23:54;;;;;;;7.00;3.52;;;;;;;25.59;52.29;100544.53;1660605;84;27452;-77
2022/06/25 07:26:22;;;;;;;5.20;3.12;;;;;;;25.66;51.37;100545.82;1644316;85;25941;-78
2022/06/25 07:28:51;;;;;;;6.97;3.40;;;;;;;25.73;51.03;100540.83;1646483;86;28306;-78
2022/06/25 07:31:17;;;;;;;4.35;3.40;;;;;;;25.79;49.88;100541.05;1648959;85;25943;-76
2022/06/25 07:33:43;;;;;;;5.22;3.52;;;;;;;25.85;49.44;100539.09;1657087;85;25339;-77
2022/06/25 07:36:10;;;;;;;7.35;2.72;;;;;;;25.91;49.53;100539.30;1655576;85;26497;-78
2022/06/25 07:38:37;;;;;;;8.78;4.03;;;;;;;25.98;49.67;100541.16;1656104;85;25792;-79
2022/06/25 07:41:04;;;;;;;5.45;3.90;;;;;;;26.04;49.40;100542.75;1654502;85;28049;-78
2022/06/25 07:43:30;;;;;;;6.33;3.17;;;;;;;26.12;49.52;100544.88;1660704;84;26548;-79
2022/06/25 07:45:58;;;;;;;4.83;3.30;;;;;;;26.22;49.60;100546.14;1653650;85;25943;-78
2022/06/25 07:48:25;;;;;;;6.45;3.25;;;;;;;26.26;48.72;100536.20;1664732;85;26027;-81
2022/06/25 07:53:36;;;;;;;3.75;2.92;;;;;;;26.35;47.38;100539.13;1641697;86;27485;-78
2022/06/25 07:56:03;;;;;;;5.03;3.00;;;;;;;26.43;47.80;100538.51;1637974;85;25908;-78
2022/06/25 07:58:31;;;;;;;3.62;2.55;;;;;;;26.50;46.97;100531.54;1634405;86;25774;-78
2022/06/25 08:00:57;;;;;;;5.28;3.30;;;;;;;26.58;47.00;100536.38;1648822;85;26093;-78
2022/06/25 08:03:23;;;;;;;4.15;2.77;;;;;;;26.64;46.17;100529.73;1650915;85;25345;-78
2022/06/25 08:05:53;;;;;;;4.37;2.55;;;;;;;26.68;45.68;100530.77;1679291;80;27569;31
2022/06/25 08:08:20;;;;;;;6.50;2.90;;;;;;;26.72;43.37;100525.50;1664210;83;25805;-76
2022/06/25 08:10:46;;;;;;;5.60;3.02;;;;;;;26.74;43.66;100540.61;1710874;82;25914;-77
2022/06/25 08:13:13;;;;;;;5.58;2.55;;;;;;;26.77;41.53;100536.47;1711296;83;26052;-78
2022/06/25 08:15:39;;;;;;;5.87;3.00;;;;;;;26.82;43.38;100536.95;1689705;84;26066;-78
2022/06/25 08:18:05;;;;;;;5.08;2.47;;;;;;;26.89;41.99;100534.64;1710514;82;28139;-78
2022/06/25 08:20:32;;;;;;;10.38;2.83;;;;;;;26.95;43.01;100534.83;1707393;83;26059;-77
2022/06/25 08:22:58;;;;;;;2.85;2.35;;;;;;;26.97;40.01;100534.80;1711148;83;25308;-79
2022/06/25 08:25:25;;;;;;;6.10;2.50;;;;;;;27.01;41.29;100537.78;1710803;83;26855;-77
2022/06/25 08:27:57;;;;;;;7.00;2.50;;;;;;;27.08;41.84;100544.54;1703411;80;26540;31
2022/06/25 08:30:25;;;;;;;2.52;2.12;;;;;;;27.17;41.16;100543.31;1672840;83;27647;-78
2022/06/25 08:32:51;;;;;;;9.70;3.30;;;;;;;27.23;41.08;100536.61;1668555;84;25993;-77
2022/06/25 08:35:18;;;;;;;5.80;2.08;;;;;;;27.25;40.87;100529.70;1712254;83;25857;-78
2022/06/25 08:37:47;;;;;;;2.62;2.42;;;;;;;27.33;42.42;100534.53;1723730;81;25918;-78
2022/06/25 08:40:14;;;;;;;4.75;1.98;;;;;;;27.40;40.73;100532.80;1700650;83;25787;-78
2022/06/25 08:42:40;;;;;;;3.42;2.67;;;;;;;27.42;41.46;100536.89;1675701;83;27440;-78
2022/06/25 08:45:08;;;;;;;4.15;3.17;;;;;;;27.49;41.63;100540.64;1693954;83;25944;-78
2022/06/25 08:47:41;;;;;;;4.25;2.50;;;;;;;27.57;42.02;100538.58;1645959;86;25959;-77
2022/06/25 08:50:10;;;;;;;12.25;3.10;;;;;;;27.66;40.40;100538.16;1653534;84;26099;-77
2022/06/25 08:52:37;;;;;;;14.80;3.22;;;;;;;27.68;39.99;100538.67;1663401;84;26004;-79
2022/06/25 08:55:06;;;;;;;12.90;3.60;;;;;;;27.67;40.96;100538.98;1619470;86;27490;-77
2022/06/25 08:57:32;;;;;;;6.28;2.60;;;;;;;27.72;40.13;100538.33;1671645;84;26510;-77
2022/06/25 08:59:59;;;;;;;3.27;2.75;;;;;;;27.75;39.69;100541.86;1676938;83;25940;-77
2022/06/25 09:02:26;;;;;;;6.05;2.90;;;;;;;27.79;40.57;100540.69;1659975;85;26069;-78
2022/06/25 09:04:53;;;;;;;5.35;2.83;;;;;;;27.83;37.76;100539.78;1705209;83;25966;-79
2022/06/25 09:07:20;;;;;;;4.03;2.33;;;;;;;27.85;39.45;100540.30;1689145;84;28165;-77
2022/06/25 09:09:49;;;;;;;4.70;2.37;;;;;;;27.90;39.25;100539.39;1685513;82;26495;-77
2022/06/25 09:12:18;;;;;;;2.87;2.20;;;;;;;27.96;40.64;100545.89;1678861;84;25792;-79
2022/06/25 09:14:45;;;;;;;2.87;2.10;;;;;;;28.01;39.11;100549.14;1663223;84;26096;-78
2022/06/25 09:17:14;;;;;;;4.22;2.20;;;;;;;28.05;39.76;100541.91;1667721;83;25933;-78
2022/06/25 09:19:50;;;;;;;4.58;2.35;;;;;;;28.13;39.91;100534.31;1682872;83;27544;-78
2022/06/25 09:22:20;;;;;;;5.37;2.10;;;;;;;28.15;38.46;100537.02;1676679;84;25860;-77
2022/06/25 09:24:51;;;;;;;4.25;2.62;;;;;;;28.18;37.70;100542.48;1671659;84;25843;-78
2022/06/25 09:27:36;;;;;;;2.55;2.35;;;;;;;28.20;37.91;100544.38;1678748;83;26411;-79
2022/06/25 09:33:14;;;;;;;3.08;2.33;;;;;;;28.23;37.86;100540.44;1719803;77;27283;-78
2022/06/25 09:35:43;;;;;;;4.50;2.50;;;;;;;28.27;37.84;100540.67;1719092;82;25896;-78
2022/06/25 09:38:16;;;;;;;4.22;2.20;;;;;;;28.32;37.62;100541.11;1723628;82;26261;-77
2022/06/25 09:40:56;;;;;;;5.83;2.05;;;;;;;28.33;37.46;100538.06;1730382;81;26075;-79
2022/06/25 09:46:31;;;;;;;3.35;2.10;;;;;;;28.44;38.15;100535.37;1694137;79;27446;31
2022/06/25 09:48:57;;;;;;;3.37;2.45;;;;;;;28.47;39.05;100541.63;1707245;82;25291;-77
2022/06/25 09:51:24;;;;;;;3.42;2.40;;;;;;;28.52;36.96;100533.82;1722409;82;25264;-76
2022/06/25 09:53:57;;;;;;;3.50;2.40;;;;;;;28.58;37.23;100539.51;1701266;84;26309;-77
2022/06/25 09:56:30;;;;;;;4.15;1.92;;;;;;;28.61;38.09;100537.53;1744971;82;25841;-78
2022/06/25 09:58:58;;;;;;;5.10;2.17;;;;;;;28.64;37.50;100534.14;1688196;83;27574;-77
2022/06/25 10:01:31;;;;;;;3.92;2.17;;;;;;;28.68;37.00;100537.36;1682405;85;25777;-76
2022/06/25 10:04:03;;;;;;;2.17;1.90;;;;;;;28.70;37.23;100532.34;1662523;84;25825;-78
2022/06/25 10:06:34;;;;;;;2.83;1.57;;;;;;;28.76;37.03;100527.56;1683719;84;26527;-77
2022/06/25 10:09:05;;;;;;;;;;;;;;;28.82;36.12;100531.28;1685784;85;26400;-77
2022/06/25 10:11:34;;;;;;;6.72;2.02;;;;;;;28.84;36.29;100526.27;1670469;84;27537;-78
2022/06/25 10:14:13;;;;;;;3.15;2.02;;;;;;;28.85;36.77;100532.02;1726991;78;26617;31
2022/06/25 10:16:40;;;;;;;5.10;1.90;;;;;;;28.90;36.15;100530.54;1647819;84;25980;-77
2022/06/25 10:19:10;;;;;;;3.65;1.95;;;;;;;28.95;35.83;100526.86;1632833;84;26522;-77
2022/06/25 10:21:37;;;;;;;3.43;2.30;;;;;;;28.98;36.67;100524.28;1625651;85;25934;-78
2022/06/25 10:24:06;;;;;;;2.85;1.80;;;;;;;29.05;36.53;100523.03;1616026;85;27469;-77
2022/06/25 10:26:34;;;;;;;9.48;2.45;;;;;;;29.09;35.73;100519.91;1586235;88;26433;-76
2022/06/25 10:29:04;;;;;;;3.98;1.98;;;;;;;29.14;35.37;100517.86;1614131;87;25955;-79
2022/06/25 10:31:30;;;;;;;5.05;2.00;;;;;;;29.21;35.99;100514.15;1574044;88;26916;-78
2022/06/25 10:34:03;;;;;;;2.67;1.98;;;;;;;29.28;35.68;100517.27;1623294;86;25767;-78
2022/06/25 10:36:50;;;;;;;5.78;2.02;;;;;;;29.32;35.16;100514.72;1617358;86;28463;-78
2022/06/25 10:39:31;;;;;;;3.30;2.42;;;;;;;29.35;34.59;100514.08;1616719;86;26504;-78
2022/06/25 10:45:23;;;;;;;4.90;2.30;;;;;;;29.46;36.91;100510.77;1585981;88;26094;-78
2022/06/25 10:47:53;;;;;;;2.50;2.10;;;;;;;29.49;36.44;100511.50;1596626;87;25886;-78
2022/06/25 10:50:32;;;;;;;2.47;2.27;;;;;;;29.59;35.47;100513.20;1605798;87;27554;-76
2022/06/25 10:53:10;;;;;;;2.55;2.33;;;;;;;29.63;34.81;100503.98;1625762;86;26018;-77
2022/06/25 10:55:50;;;;;;;3.10;2.05;;;;;;;29.70;35.49;100502.95;1603142;87;26395;-78
2022/06/25 10:58:25;;;;;;;2.10;1.92;;;;;;;29.73;34.14;100504.27;1626170;87;26079;-78
2022/06/25 11:01:01;;;;;;;2.92;1.90;;;;;;;29.70;33.39;100504.33;1602744;89;25780;-79
2022/06/25 11:03:36;;;;;;;3.12;1.90;;;;;;;29.73;35.04;100507.88;1625830;88;28296;-78
2022/06/25 11:06:24;;;;;;;2.30;2.10;;;;;;;29.80;34.52;100505.23;1602951;87;25938;-76
2022/06/25 11:08:52;;;;;;;2.77;2.15;;;;;;;29.84;34.17;100503.47;1623480;86;26463;-76
2022/06/25 11:11:26;;;;;;;8.85;2.40;;;;;;;29.89;33.99;100502.78;1651149;85;26488;-77
2022/06/25 11:16:41;;;;;;;5.12;2.00;;;;;;;29.97;33.72;100502.56;1681137;77;27028;-78
2022/06/25 11:19:07;;;;;;;3.12;2.45;;;;;;;29.98;34.12;100509.17;1658960;84;26537;-77
2022/06/25 11:21:38;;;;;;;4.55;2.40;;;;;;;29.95;33.93;100507.59;1658762;85;25857;-77
2022/06/25 11:24:19;;;;;;;7.05;4.08;;;;;;;29.98;33.73;100509.73;1653190;85;26151;-77
2022/06/25 11:29:46;;;;;;;3.33;2.30;;;;;;;29.90;34.15;100509.92;1661374;84;28364;-78
2022/06/25 11:32:21;;;;;;;2.65;1.90;;;;;;;29.89;34.33;100505.55;1660369;84;25824;-76
2022/06/25 11:34:57;;;;;;;3.65;2.30;;;;;;;29.91;35.61;100503.28;1696374;83;25939;-78
2022/06/25 11:37:25;;;;;;;5.20;2.12;;;;;;;29.90;34.65;100502.23;1678539;84;25765;-77
2022/06/25 11:39:52;;;;;;;5.85;2.60;;;;;;;29.85;34.51;100495.45;1677350;83;25329;-76
2022/06/25 11:42:19;;;;;;;4.75;3.17;;;;;;;29.84;34.84;100499.32;1666030;85;27456;-78
2022/06/25 11:44:52;;;;;;;3.05;2.30;;;;;;;29.83;34.59;100497.71;1683259;83;26472;-77
2022/06/25 11:47:27;;;;;;;2.50;2.30;;;;;;;29.89;33.76;100502.78;1677586;84;25754;-79
2022/06/25 11:49:54;;;;;;;2.47;2.30;;;;;;;30.01;34.92;100504.38;1688023;84;26082;-77
2022/06/25 11:52:26;;;;;;;6.05;2.77;;;;;;;30.06;34.12;100500.66;1685775;84;25304;-75
2022/06/25 11:54:52;;;;;;;3.10;2.30;;;;;;;29.95;33.66;100494.60;1661153;84;28342;-76
2022/06/25 11:57:23;;;;;;;3.87;2.10;;;;;;;29.88;33.56;100498.94;1690155;84;26026;-76
2022/06/25 11:59:51;;;;;;;;;;;;;;;29.82;34.19;100505.73;1683533;82;26047;-77